createdAt,value
2018-12-15T00:00:57.266Z,102153.84
2018-12-15T00:03:36.087Z,102143.88
2018-12-15T00:06:08.208Z,102155.56
2018-12-15T00:08:40.376Z,102158.25
2018-12-15T00:11:11.319Z,102158.41
2018-12-15T00:13:42.154Z,102160.64
2018-12-15T00:16:15.235Z,102166.06
2018-12-15T00:19:01.336Z,102170.25
2018-12-15T00:21:39.716Z,102168.84
2018-12-15T00:24:11.827Z,102169.99
2018-12-15T00:26:43.576Z,102169.16
2018-12-15T00:29:23.301Z,102179.70
2018-12-15T00:32:09.163Z,102175.08
2018-12-15T00:34:43.192Z,102174.47
2018-12-15T00:37:15.301Z,102177.95
2018-12-15T00:39:53.054Z,102171.83
2018-12-15T00:42:32.773Z,102170.13
2018-12-15T00:45:04.117Z,102176.17
2018-12-15T00:47:53.505Z,102182.71
2018-12-15T00:50:33.756Z,102190.55
2018-12-15T00:53:13.087Z,102194.14
2018-12-15T00:55:44.327Z,102192.37
2018-12-15T00:58:23.713Z,102188.80
2018-12-15T01:01:10.787Z,102189.89
2018-12-15T01:03:50.574Z,102188.11
2018-12-15T01:06:41.538Z,102182.51
2018-12-15T01:09:19.393Z,102193.23
2018-12-15T01:11:53.323Z,102195.94
2018-12-15T01:14:31.022Z,102201.88
2018-12-15T01:17:02.151Z,102203.37
2018-12-15T01:19:53.012Z,102201.28
2018-12-15T01:22:30.756Z,102215.41
2018-12-15T01:25:02.006Z,102225.62
2018-12-15T01:27:35.168Z,102223.21
2018-12-15T01:30:13.819Z,102227.22
2018-12-15T01:32:47.205Z,102236.11
2018-12-15T01:35:19.270Z,102236.41
2018-12-15T01:37:58.806Z,102243.26
2018-12-15T01:40:36.806Z,102246.03
2018-12-15T01:43:17.306Z,102255.16
2018-12-15T01:45:48.838Z,102246.67
2018-12-15T01:48:18.793Z,102245.57
2018-12-15T01:50:56.609Z,102243.98
2018-12-15T01:53:34.511Z,102242.75
2018-12-15T01:56:06.466Z,102245.88
2018-12-15T01:58:41.201Z,102245.94
2018-12-15T02:01:15.211Z,102244.13
2018-12-15T02:03:46.392Z,102251.47
2018-12-15T02:06:20.331Z,102241.35
2018-12-15T02:08:58.938Z,102245.92
2018-12-15T02:11:36.797Z,102247.09
2018-12-15T02:14:08.257Z,102246.21
2018-12-15T02:16:39.406Z,102242.07
2018-12-15T02:19:10.426Z,102245.62
2018-12-15T02:21:43.162Z,102245.83
2018-12-15T02:24:21.668Z,102242.72
2018-12-15T02:26:53.910Z,102241.74
2018-12-15T02:29:23.777Z,102239.35
2018-12-15T02:31:53.751Z,102239.23
2018-12-15T02:34:25.312Z,102239.41
2018-12-15T02:36:58.309Z,102238.77
2018-12-15T02:39:36.031Z,102241.13
2018-12-15T02:42:14.035Z,102230.17
2018-12-15T02:44:51.767Z,102227.09
2018-12-15T02:47:29.780Z,102234.71
2018-12-15T02:50:00.812Z,102230.16
2018-12-15T02:52:32.781Z,102228.43
2018-12-15T02:55:04.740Z,102225.71
2018-12-15T02:57:35.915Z,102227.09
2018-12-15T03:00:07.037Z,102221.61
2018-12-15T03:02:38.101Z,102217.17
2018-12-15T03:05:11.926Z,102211.27
2018-12-15T03:07:49.920Z,102214.19
2018-12-15T03:10:21.127Z,102213.91
2018-12-15T03:12:52.250Z,102207.03
2018-12-15T03:15:24.115Z,102204.38
2018-12-15T03:18:02.960Z,102194.91
2018-12-15T03:20:32.910Z,102196.56
2018-12-15T03:23:03.934Z,102198.12
2018-12-15T03:25:36.241Z,102195.45
2018-12-15T03:28:13.970Z,102193.41
2018-12-15T03:30:48.197Z,102191.41
2018-12-15T03:33:19.360Z,102187.62
2018-12-15T03:35:53.377Z,102182.75
2018-12-15T03:38:31.203Z,102182.23
2018-12-15T03:41:09.353Z,102185.72
2018-12-15T03:43:47.362Z,102190.56
2018-12-15T03:46:19.678Z,102190.19
2018-12-15T03:48:58.171Z,102186.56
2018-12-15T03:51:33.194Z,102183.06
2018-12-15T03:54:11.022Z,102178.16
2018-12-15T03:56:45.160Z,102185.31
2018-12-15T03:59:23.157Z,102182.16
2018-12-15T04:01:54.401Z,102185.22
2018-12-15T04:04:25.753Z,102183.08
2018-12-15T04:06:57.497Z,102181.27
2018-12-15T04:12:21.390Z,102183.30
2018-12-15T04:14:52.449Z,102176.83
2018-12-15T04:17:30.330Z,102177.55
2018-12-15T04:20:01.571Z,102174.44
2018-12-15T04:22:42.939Z,102169.00
2018-12-15T04:25:14.507Z,102168.14
2018-12-15T04:27:48.461Z,102163.69
2018-12-15T04:30:26.223Z,102174.79
2018-12-15T04:32:57.910Z,102171.20
2018-12-15T04:35:30.845Z,102167.31
2018-12-15T04:38:11.697Z,102185.48
2018-12-15T04:40:43.182Z,102183.24
2018-12-15T04:43:21.553Z,102175.41
2018-12-15T04:45:52.855Z,102172.84
2018-12-15T04:48:31.334Z,102171.55
2018-12-15T04:51:11.374Z,102168.23
2018-12-15T04:53:41.907Z,102169.11
2018-12-15T04:56:13.833Z,102172.28
2018-12-15T04:58:54.464Z,102172.30
2018-12-15T05:01:34.682Z,102183.19
2018-12-15T05:04:08.865Z,102174.84
2018-12-15T05:06:41.927Z,102179.05
2018-12-15T05:09:27.200Z,102174.08
2018-12-15T05:12:05.518Z,102172.92
2018-12-15T05:14:44.424Z,102166.42
2018-12-15T05:17:15.681Z,102170.67
2018-12-15T05:19:53.635Z,102168.05
2018-12-15T05:22:28.786Z,102175.51
2018-12-15T05:25:00.020Z,102175.66
2018-12-15T05:27:39.692Z,102177.80
2018-12-15T05:30:11.614Z,102177.50
2018-12-15T05:32:50.056Z,102177.45
2018-12-15T05:35:22.269Z,102179.96
2018-12-15T05:37:53.202Z,102176.33
2018-12-15T05:40:32.722Z,102178.02
2018-12-15T05:43:15.042Z,102177.27
2018-12-15T05:45:47.530Z,102179.37
2018-12-15T05:48:26.295Z,102178.69
2018-12-15T05:51:05.138Z,102177.48
2018-12-15T05:56:31.234Z,102180.61
2018-12-15T05:59:10.818Z,102183.50
2018-12-15T06:01:43.253Z,102186.26
2018-12-15T06:04:30.301Z,102182.92
2018-12-15T06:07:01.402Z,102187.33
2018-12-15T06:09:43.560Z,102179.41
2018-12-15T06:12:14.233Z,102181.67
2018-12-15T06:14:53.733Z,102182.36
2018-12-15T06:17:32.679Z,102180.11
2018-12-15T06:20:12.520Z,102187.08
2018-12-15T06:22:47.536Z,102187.29
2018-12-15T06:25:20.562Z,102189.42
2018-12-15T06:27:51.690Z,102182.42
2018-12-15T06:30:25.187Z,102189.30
2018-12-15T06:33:04.722Z,102190.81
2018-12-15T06:35:35.969Z,102193.49
2018-12-15T06:41:09.362Z,102189.22
2018-12-15T06:43:53.888Z,102196.51
2018-12-15T06:46:26.647Z,102193.83
2018-12-15T06:49:06.373Z,102186.37
2018-12-15T06:51:45.301Z,102186.92
2018-12-15T06:54:24.546Z,102180.88
2018-12-15T06:57:00.262Z,102182.17
2018-12-15T06:59:32.576Z,102177.09
2018-12-15T07:02:10.275Z,102176.64
2018-12-15T07:04:48.095Z,102170.38
2018-12-15T07:07:27.886Z,102174.33
2018-12-15T07:10:00.098Z,102170.84
2018-12-15T07:12:29.726Z,102170.17
2018-12-15T07:15:09.388Z,102171.25
2018-12-15T07:17:49.252Z,102168.40
2018-12-15T07:20:21.458Z,102169.09
2018-12-15T07:22:52.474Z,102172.84
2018-12-15T07:25:26.452Z,102164.61
2018-12-15T07:27:57.426Z,102168.20
2018-12-15T07:30:42.966Z,102168.87
2018-12-15T07:33:22.226Z,102167.25
2018-12-15T07:35:53.750Z,102167.76
2018-12-15T07:38:32.076Z,102171.65
2018-12-15T07:41:11.827Z,102177.91
2018-12-15T07:43:45.782Z,102173.31
2018-12-15T07:46:18.767Z,102178.55
2018-12-15T07:49:01.053Z,102176.98
2018-12-15T07:51:41.298Z,102176.97
2018-12-15T07:54:13.574Z,102172.03
2018-12-15T07:56:48.621Z,102175.85
2018-12-15T07:59:27.726Z,102173.81
2018-12-15T08:02:06.948Z,102182.51
2018-12-15T08:04:46.212Z,102193.56
2018-12-15T08:07:23.977Z,102181.14
2018-12-15T08:10:04.378Z,102191.05
2018-12-15T08:12:43.054Z,102189.59
2018-12-15T08:15:15.426Z,102195.84
2018-12-15T08:17:55.936Z,102189.26
2018-12-15T08:20:28.224Z,102192.05
2018-12-15T08:23:08.053Z,102195.27
2018-12-15T08:25:39.232Z,102197.92
2018-12-15T08:28:17.054Z,102186.58
2018-12-15T08:30:56.208Z,102195.27
2018-12-15T08:33:28.548Z,102199.57
2018-12-15T08:36:01.600Z,102194.08
2018-12-15T08:38:31.656Z,102198.94
2018-12-15T08:41:18.823Z,102193.86
2018-12-15T08:43:58.164Z,102185.02
2018-12-15T08:46:38.079Z,102200.89
2018-12-15T08:49:09.345Z,102199.48
2018-12-15T08:51:44.927Z,102210.27
2018-12-15T08:54:17.200Z,102214.25
2018-12-15T08:56:52.659Z,102209.80
2018-12-15T08:59:31.605Z,102208.59
2018-12-15T09:02:04.746Z,102209.43
2018-12-15T09:04:35.815Z,102207.70
2018-12-15T09:07:08.682Z,102215.19
2018-12-15T09:09:39.932Z,102217.64
2018-12-15T09:12:15.322Z,102211.33
2018-12-15T09:14:48.443Z,102217.48
2018-12-15T09:17:20.450Z,102210.38
2018-12-15T09:20:01.077Z,102213.84
2018-12-15T09:22:36.162Z,102215.00
2018-12-15T09:25:13.984Z,102213.00
2018-12-15T09:27:45.297Z,102214.36
2018-12-15T09:30:26.622Z,102213.45
2018-12-15T09:32:57.923Z,102222.29
2018-12-15T09:35:30.726Z,102220.43
2018-12-15T09:38:11.328Z,102212.50
2018-12-15T09:40:53.254Z,102213.92
2018-12-15T09:43:34.804Z,102215.02
2018-12-15T09:46:07.868Z,102216.31
2018-12-15T09:48:47.226Z,102211.03
2018-12-15T09:51:18.530Z,102210.66
2018-12-15T09:53:57.212Z,102204.77
2018-12-15T09:56:30.324Z,102195.11
2018-12-15T09:59:01.368Z,102195.87
2018-12-15T10:01:40.276Z,102182.77
2018-12-15T10:04:12.568Z,102183.17
2018-12-15T10:06:45.167Z,102182.03
2018-12-15T10:09:23.728Z,102180.09
2018-12-15T10:11:56.142Z,102186.30
2018-12-15T10:14:33.998Z,102183.09
2018-12-15T10:17:06.290Z,102171.92
2018-12-15T10:19:45.083Z,102173.81
2018-12-15T10:22:17.411Z,102166.34
2018-12-15T10:24:55.228Z,102158.98
2018-12-15T10:27:34.036Z,102152.27
2018-12-15T10:30:18.496Z,102152.33
2018-12-15T10:33:04.995Z,102145.75
2018-12-15T10:35:37.138Z,102138.41
2018-12-15T10:38:09.235Z,102125.53
2018-12-15T10:40:47.685Z,102125.89
2018-12-15T10:46:13.594Z,102128.34
2018-12-15T10:48:54.882Z,102128.80
2018-12-15T10:51:33.275Z,102130.45
2018-12-15T10:54:11.142Z,102134.13
2018-12-15T10:56:44.046Z,102131.73
2018-12-15T10:59:24.579Z,102130.09
2018-12-15T11:02:10.094Z,102126.39
2018-12-15T11:04:50.721Z,102129.61
2018-12-15T11:07:24.796Z,102123.88
2018-12-15T11:10:03.689Z,102117.98
2018-12-15T11:12:35.985Z,102120.77
2018-12-15T11:15:14.467Z,102120.77
2018-12-15T11:17:50.520Z,102109.08
2018-12-15T11:20:30.378Z,102103.61
2018-12-15T11:23:10.022Z,102101.58
2018-12-15T11:25:44.065Z,102094.23
2018-12-15T11:28:22.622Z,102092.13
2018-12-15T11:30:55.283Z,102083.61
2018-12-15T11:33:34.743Z,102080.77
2018-12-15T11:36:08.821Z,102076.08
2018-12-15T11:38:51.071Z,102074.02
2018-12-15T11:41:27.524Z,102060.55
2018-12-15T11:43:58.720Z,102050.24
2018-12-15T11:46:30.901Z,102042.06
2018-12-15T11:49:11.506Z,102033.48
2018-12-15T11:51:51.603Z,102036.28
2018-12-15T11:54:27.572Z,102024.63
2018-12-15T11:57:01.066Z,102021.94
2018-12-15T11:59:40.863Z,102021.31
2018-12-15T12:02:14.095Z,102018.55
2018-12-15T12:07:46.596Z,102010.70
2018-12-15T12:10:17.463Z,102012.92
2018-12-15T12:12:58.809Z,102000.11
2018-12-15T12:15:34.043Z,101995.85
2018-12-15T12:18:06.243Z,102010.81
2018-12-15T12:20:45.061Z,101995.80
2018-12-15T12:23:25.196Z,102001.59
2018-12-15T12:25:57.678Z,101988.52
2018-12-15T12:28:28.616Z,101983.84
2018-12-15T12:31:08.314Z,101975.19
2018-12-15T12:33:39.488Z,101976.05
2018-12-15T12:36:14.494Z,101981.36
2018-12-15T12:38:46.716Z,101968.36
2018-12-15T12:41:28.968Z,101979.55
2018-12-15T12:44:10.694Z,101974.28
2018-12-15T12:46:46.225Z,101981.48
2018-12-15T12:49:30.479Z,101982.34
2018-12-15T12:52:04.666Z,101980.42
2018-12-15T12:54:44.724Z,101982.61
2018-12-15T12:57:19.758Z,101983.28
2018-12-15T12:59:54.466Z,101978.89
2018-12-15T13:02:27.711Z,101979.45
2018-12-15T13:04:58.756Z,101972.46
2018-12-15T13:07:46.416Z,101972.46
2018-12-15T13:10:25.183Z,101973.64
2018-12-15T13:13:04.116Z,101974.57
2018-12-15T13:15:36.217Z,101965.00
2018-12-15T13:18:06.977Z,101967.08
2018-12-15T13:20:46.659Z,101951.77
2018-12-15T13:23:26.573Z,101955.49
2018-12-15T13:26:01.345Z,101956.70
2018-12-15T13:28:50.369Z,101957.55
2018-12-15T13:31:25.108Z,101956.65
2018-12-15T13:34:00.254Z,101953.40
2018-12-15T13:36:33.327Z,101949.44
2018-12-15T13:39:14.826Z,101937.11
2018-12-15T13:41:53.701Z,101933.88
2018-12-15T13:47:17.052Z,101924.07
2018-12-15T13:49:56.259Z,101923.88
2018-12-15T13:52:26.719Z,101916.67
2018-12-15T13:55:03.601Z,101912.19
2018-12-15T13:57:50.930Z,101909.98
2018-12-15T14:00:27.244Z,101910.08
2018-12-15T14:03:05.986Z,101906.66
2018-12-15T14:05:38.083Z,101908.83
2018-12-15T14:08:17.606Z,101904.05
2018-12-15T14:10:52.639Z,101899.88
2018-12-15T14:13:34.963Z,101897.73
2018-12-15T14:16:07.415Z,101901.70
2018-12-15T14:18:47.358Z,101895.14
2018-12-15T14:21:19.640Z,101885.97
2018-12-15T14:23:57.536Z,101885.48
2018-12-15T14:26:31.738Z,101876.66
2018-12-15T14:29:04.312Z,101873.79
2018-12-15T14:31:37.527Z,101866.63
2018-12-15T14:34:16.356Z,101871.87
2018-12-15T14:36:48.315Z,101866.61
2018-12-15T14:39:29.076Z,101852.88
2018-12-15T14:42:00.224Z,101840.53
2018-12-15T14:44:39.446Z,101845.50
2018-12-15T14:47:11.647Z,101845.89
2018-12-15T14:49:54.756Z,101839.55
2018-12-15T14:52:33.847Z,101829.39
2018-12-15T14:55:07.969Z,101827.98
2018-12-15T14:57:40.282Z,101830.34
2018-12-15T15:00:15.180Z,101820.11
2018-12-15T15:02:47.399Z,101807.25
2018-12-15T15:05:19.126Z,101795.33
2018-12-15T15:07:57.521Z,101788.45
2018-12-15T15:10:32.379Z,101786.90
2018-12-15T15:13:07.983Z,101776.41
2018-12-15T15:15:41.216Z,101773.81
2018-12-15T15:18:13.291Z,101770.02
2018-12-15T15:20:47.153Z,101769.50
2018-12-15T15:23:18.247Z,101769.07
2018-12-15T15:25:49.091Z,101763.21
2018-12-15T15:28:21.255Z,101765.44
2018-12-15T15:31:00.796Z,101754.50
2018-12-15T15:33:40.720Z,101763.62
2018-12-15T15:36:13.126Z,101765.31
2018-12-15T15:38:58.249Z,101759.84
2018-12-15T15:41:37.894Z,101745.45
2018-12-15T15:44:10.256Z,101748.02
2018-12-15T15:46:40.216Z,101752.04
2018-12-15T15:49:19.007Z,101751.48
2018-12-15T15:54:53.413Z,101742.06
2018-12-15T15:57:26.063Z,101742.20
2018-12-15T16:00:07.851Z,101731.22
2018-12-15T16:02:55.823Z,101717.07
2018-12-15T16:05:29.027Z,101711.28
2018-12-15T16:07:59.944Z,101724.91
2018-12-15T16:10:40.371Z,101715.40
2018-12-15T16:13:21.577Z,101706.59
2018-12-15T16:15:53.933Z,101700.88
2018-12-15T16:18:29.474Z,101713.81
2018-12-15T16:21:08.364Z,101707.97
2018-12-15T16:23:43.214Z,101709.37
2018-12-15T16:26:15.283Z,101703.59
2018-12-15T16:28:56.522Z,101708.66
2018-12-15T16:31:35.760Z,101700.81
2018-12-15T16:34:14.940Z,101701.33
2018-12-15T16:36:47.036Z,101703.93
2018-12-15T16:39:29.333Z,101693.11
2018-12-15T16:42:14.081Z,101694.47
2018-12-15T16:44:48.529Z,101689.83
2018-12-15T16:47:27.730Z,101689.47
2018-12-15T16:50:02.706Z,101681.41
2018-12-15T16:52:41.850Z,101681.07
2018-12-15T16:55:14.421Z,101668.09
2018-12-15T16:57:45.106Z,101662.38
2018-12-15T17:00:16.159Z,101657.70
2018-12-15T17:02:51.673Z,101669.41
2018-12-15T17:05:22.737Z,101669.52
2018-12-15T17:07:55.025Z,101657.31
2018-12-15T17:10:34.705Z,101654.88
2018-12-15T17:13:06.924Z,101651.81
2018-12-15T17:15:37.822Z,101652.98
2018-12-15T17:18:16.676Z,101655.44
2018-12-15T17:20:58.583Z,101642.19
2018-12-15T17:23:30.347Z,101638.25
2018-12-15T17:26:01.204Z,101636.84
2018-12-15T17:28:31.003Z,101627.91
2018-12-15T17:31:10.692Z,101622.52
2018-12-15T17:33:42.802Z,101616.71
2018-12-15T17:36:19.232Z,101607.78
2018-12-15T17:38:51.350Z,101603.06
2018-12-15T17:41:30.338Z,101591.56
2018-12-15T17:44:06.582Z,101585.16
2018-12-15T17:46:45.422Z,101578.39
2018-12-15T17:49:23.319Z,101576.06
2018-12-15T17:51:56.760Z,101570.61
2018-12-15T17:54:26.811Z,101569.88
2018-12-15T17:56:56.651Z,101567.58
2018-12-15T17:59:27.461Z,101551.73
2018-12-15T18:02:14.138Z,101548.56
2018-12-15T18:04:44.848Z,101539.45
2018-12-15T18:07:19.480Z,101533.53
2018-12-15T18:09:51.767Z,101527.14
2018-12-15T18:12:30.319Z,101515.20
2018-12-15T18:15:03.874Z,101502.60
2018-12-15T18:17:34.710Z,101510.31
2018-12-15T18:20:07.649Z,101494.34
2018-12-15T18:22:44.443Z,101490.77
2018-12-15T18:25:25.938Z,101482.16
2018-12-15T18:28:04.359Z,101476.16
2018-12-15T18:30:49.452Z,101463.86
2018-12-15T18:36:16.396Z,101448.48
2018-12-15T18:38:59.014Z,101445.56
2018-12-15T18:41:32.838Z,101448.53
2018-12-15T18:44:06.642Z,101449.94
2018-12-15T18:46:42.228Z,101439.51
2018-12-15T18:49:18.230Z,101438.20
2018-12-15T18:51:58.273Z,101438.56
2018-12-15T18:54:38.119Z,101436.39
2018-12-15T18:57:10.589Z,101442.50
2018-12-15T18:59:43.375Z,101444.17
2018-12-15T19:02:16.408Z,101432.45
2018-12-15T19:04:57.408Z,101441.48
2018-12-15T19:07:29.268Z,101428.09
2018-12-15T19:10:07.997Z,101423.23
2018-12-15T19:12:38.799Z,101423.31
2018-12-15T19:15:17.423Z,101418.11
2018-12-15T19:17:56.134Z,101413.94
2018-12-15T19:20:30.081Z,101412.23
2018-12-15T19:23:01.003Z,101414.46
2018-12-15T19:25:33.203Z,101404.86
2018-12-15T19:28:07.608Z,101403.31
2018-12-15T19:30:42.570Z,101412.02
2018-12-15T19:33:14.558Z,101404.08
2018-12-15T19:35:46.829Z,101394.28
2018-12-15T19:38:27.584Z,101395.24
2018-12-15T19:40:57.656Z,101380.28
2018-12-15T19:43:36.485Z,101377.45
2018-12-15T19:46:08.633Z,101364.08
2018-12-15T19:48:50.792Z,101362.98
2018-12-15T19:51:32.901Z,101362.80
2018-12-15T19:54:07.337Z,101356.83
2018-12-15T19:56:38.442Z,101356.77
2018-12-15T19:59:12.191Z,101343.88
2018-12-15T20:01:51.274Z,101343.19
2018-12-15T20:04:29.109Z,101341.19
2018-12-15T20:07:03.287Z,101336.17
2018-12-15T20:09:42.003Z,101329.36
2018-12-15T20:12:20.866Z,101330.41
2018-12-15T20:15:06.459Z,101320.93
2018-12-15T20:17:45.750Z,101319.05
2018-12-15T20:20:18.051Z,101313.89
2018-12-15T20:22:58.462Z,101315.42
2018-12-15T20:25:31.011Z,101311.48
2018-12-15T20:30:57.663Z,101301.48
2018-12-15T20:33:28.703Z,101296.00
2018-12-15T20:36:00.675Z,101293.98
2018-12-15T20:38:39.475Z,101288.77
2018-12-15T20:41:23.838Z,101280.50
2018-12-15T20:43:54.684Z,101266.99
2018-12-15T20:46:27.637Z,101265.16
2018-12-15T20:49:08.291Z,101268.17
2018-12-15T20:51:42.959Z,101260.15
2018-12-15T20:54:29.430Z,101255.80
2018-12-15T20:57:02.184Z,101249.39
2018-12-15T20:59:43.366Z,101243.50
2018-12-15T21:02:16.223Z,101248.88
2018-12-15T21:04:55.978Z,101242.66
2018-12-15T21:07:27.299Z,101233.86
2018-12-15T21:10:04.781Z,101224.21
2018-12-15T21:12:40.030Z,101231.56
2018-12-15T21:15:19.958Z,101232.31
2018-12-15T21:17:57.891Z,101222.53
2018-12-15T21:20:37.597Z,101204.41
2018-12-15T21:23:16.765Z,101199.95
2018-12-15T21:25:52.273Z,101202.32
2018-12-15T21:28:40.951Z,101197.91
2018-12-15T21:31:20.606Z,101195.34
2018-12-15T21:33:56.561Z,101192.86
2018-12-15T21:36:29.804Z,101184.44
2018-12-15T21:39:05.242Z,101168.48
2018-12-15T21:41:39.710Z,101158.25
2018-12-15T21:44:10.770Z,101164.33
2018-12-15T21:46:43.924Z,101148.39
2018-12-15T21:49:14.910Z,101144.92
2018-12-15T21:51:56.964Z,101139.84
2018-12-15T21:54:35.881Z,101135.20
2018-12-15T21:57:08.074Z,101124.17
2018-12-15T21:59:42.099Z,101120.20
2018-12-15T22:02:28.694Z,101111.00
2018-12-15T22:05:04.589Z,101111.19
2018-12-15T22:10:44.003Z,101090.20
2018-12-15T22:13:23.543Z,101075.61
2018-12-15T22:15:55.691Z,101071.64
2018-12-15T22:18:34.702Z,101071.28
2018-12-15T22:21:06.821Z,101060.87
2018-12-15T22:23:45.720Z,101038.02
2018-12-15T22:26:18.922Z,101039.56
2018-12-15T22:28:49.866Z,101032.53
2018-12-15T22:31:20.921Z,101035.11
2018-12-15T22:33:59.829Z,101020.91
2018-12-15T22:36:32.004Z,101016.31
2018-12-15T22:39:09.980Z,101013.06
2018-12-15T22:41:44.800Z,101017.78
2018-12-15T22:44:18.136Z,101005.77
2018-12-15T22:46:52.180Z,101015.27
2018-12-15T22:49:30.559Z,101009.27
2018-12-15T22:52:17.509Z,101008.34
2018-12-15T22:54:50.102Z,101003.92
2018-12-15T22:57:22.934Z,100995.48
2018-12-15T23:00:01.577Z,101002.16
2018-12-15T23:02:41.137Z,100999.81
2018-12-15T23:07:51.100Z,100993.50
2018-12-15T23:10:29.933Z,100988.12
2018-12-15T23:13:08.851Z,100975.20
2018-12-15T23:15:41.439Z,100979.00
2018-12-15T23:18:21.019Z,100980.86
2018-12-15T23:20:56.310Z,100976.39
2018-12-15T23:23:35.875Z,100981.15
2018-12-15T23:26:14.620Z,100986.73
2018-12-15T23:31:46.172Z,100993.00
2018-12-15T23:34:21.116Z,100990.13
2018-12-15T23:36:53.027Z,100997.64
2018-12-15T23:39:31.697Z,101001.98
2018-12-15T23:42:02.694Z,101007.49
2018-12-15T23:44:47.793Z,101001.11
2018-12-15T23:47:19.462Z,101011.74
2018-12-15T23:50:00.769Z,101013.83
2018-12-15T23:52:31.620Z,101021.09
2018-12-15T23:55:11.424Z,101022.47
2018-12-15T23:57:44.650Z,101018.45
